Time;durP1;ratioP1;P1;durP2;ratioP2;P2;SDS_P1;SDS_P2;PMS_P1;PMS_P2;Temp;Humidity;BMP_temperature;BMP_pressure;BME280_temperature;BME280_humidity;BME280_pressure;Samples;Min_cycle;Max_cycle;Signal;HPM_P1;HPM_P2
2022/04/15 00:02:11;;;;;;;13.33;12.03;;;9.30;99.90;;;;;;4994295;28;20544;-53
2022/04/15 00:04:38;;;;;;;14.40;11.40;;;9.30;99.90;;;;;;4994045;28;20480;-54
2022/04/15 00:07:05;;;;;;;13.73;11.97;;;9.20;99.90;;;;;;4994393;28;20539;-53
2022/04/15 00:09:33;;;;;;;14.93;13.33;;;9.20;99.90;;;;;;4994137;28;20480;-53
2022/04/15 00:12:06;;;;;;;13.60;12.20;;;9.20;99.90;;;;;;5009333;28;20456;-53
2022/04/15 00:14:33;;;;;;;12.73;11.50;;;9.30;99.90;;;;;;4994356;28;20515;-55
2022/04/15 00:17:01;;;;;;;12.90;11.57;;;9.30;99.90;;;;;;4993705;28;20962;-53
2022/04/15 00:19:27;;;;;;;15.80;13.17;;;9.40;99.90;;;;;;4993702;28;20449;-55
2022/04/15 00:21:54;;;;;;;13.00;11.77;;;9.40;99.90;;;;;;5010503;28;20483;-54
2022/04/15 00:24:21;;;;;;;14.40;12.50;;;9.40;99.90;;;;;;5013432;28;20867;-53
2022/04/15 00:26:48;;;;;;;15.47;12.67;;;9.40;99.90;;;;;;5013509;28;20448;-55
2022/04/15 00:29:15;;;;;;;14.23;12.73;;;9.40;99.90;;;;;;5012814;28;20522;-53
2022/04/15 00:31:42;;;;;;;13.23;12.00;;;9.50;99.90;;;;;;4998365;28;20485;-53
2022/04/15 00:34:10;;;;;;;14.33;12.90;;;9.50;99.90;;;;;;4993946;28;20489;-53
2022/04/15 00:36:36;;;;;;;15.23;13.63;;;9.50;99.90;;;;;;4993731;28;20472;-53
2022/04/15 00:39:03;;;;;;;13.53;11.90;;;9.50;99.90;;;;;;4993321;28;21032;-53
2022/04/15 00:41:29;;;;;;;16.03;12.10;;;9.50;99.90;;;;;;4994614;28;20895;-53
2022/04/15 00:43:58;;;;;;;14.90;13.40;;;9.40;99.90;;;;;;4996059;28;20538;-53
2022/04/15 00:46:25;;;;;;;12.63;11.33;;;9.30;99.90;;;;;;4993365;28;20448;-53
2022/04/15 00:48:51;;;;;;;13.20;11.80;;;9.20;99.90;;;;;;4993517;28;20548;-53
2022/04/15 00:51:20;;;;;;;15.63;12.10;;;9.20;99.90;;;;;;5004864;28;20794;-53
2022/04/15 00:53:47;;;;;;;13.37;11.70;;;9.10;99.90;;;;;;5013207;28;20471;-54
2022/04/15 00:56:14;;;;;;;13.13;11.83;;;9.00;99.90;;;;;;5013497;28;20930;-54
2022/04/15 00:58:42;;;;;;;13.53;10.93;;;9.00;99.90;;;;;;5011570;28;20863;-53
2022/04/15 01:01:09;;;;;;;13.20;10.83;;;8.90;99.90;;;;;;5012079;28;20474;-53
2022/04/15 01:03:37;;;;;;;11.00;9.67;;;8.90;99.90;;;;;;5013016;28;20806;-53
2022/04/15 01:06:06;;;;;;;14.50;8.70;;;8.80;99.90;;;;;;5012876;28;20440;-53
2022/04/15 01:08:39;;;;;;;9.93;8.10;;;8.70;99.90;;;;;;5012458;28;20471;-54
2022/04/15 01:11:07;;;;;;;9.83;8.53;;;8.60;99.90;;;;;;5004018;28;20811;-54
2022/04/15 01:13:35;;;;;;;13.70;8.67;;;8.50;99.90;;;;;;4993070;28;20539;-53
2022/04/15 01:16:02;;;;;;;17.43;8.80;;;8.50;99.90;;;;;;4993028;28;20811;-54
2022/04/15 01:18:29;;;;;;;10.07;7.20;;;8.40;99.90;;;;;;5008421;28;20872;-54
2022/04/15 01:20:55;;;;;;;15.43;8.00;;;8.30;24.00;;;;;;5005112;28;20506;-54
2022/04/15 01:23:23;;;;;;;12.47;7.47;;;8.20;41.10;;;;;;4993036;28;20488;-54
2022/04/15 01:25:50;;;;;;;8.53;6.80;;;8.10;49.60;;;;;;4992999;28;20881;-54
2022/04/15 01:28:19;;;;;;;13.00;7.90;;;8.10;58.80;;;;;;4992753;28;20516;-54
2022/04/15 01:30:46;;;;;;;13.33;7.30;;;8.10;65.80;;;;;;4994749;28;20457;-55
2022/04/15 01:33:13;;;;;;;10.93;7.73;;;7.90;66.20;;;;;;5011942;28;20498;-55
2022/04/15 01:35:39;;;;;;;8.57;7.03;;;7.90;75.50;;;;;;5012357;28;20530;-53
2022/04/15 01:38:10;;;;;;;7.67;6.70;;;7.80;81.40;;;;;;5012063;28;20566;-54
2022/04/15 01:40:38;;;;;;;7.33;6.63;;;7.70;81.10;;;;;;5011634;28;20851;-53
2022/04/15 01:43:06;;;;;;;6.87;6.30;;;7.70;89.50;;;;;;5012407;28;20809;-54
2022/04/15 01:45:32;;;;;;;12.80;6.30;;;7.60;92.10;;;;;;5012696;28;20889;-54
2022/04/15 01:47:59;;;;;;;13.70;6.80;;;7.50;99.10;;;;;;5010682;28;20550;-52
2022/04/15 01:50:28;;;;;;;11.80;6.80;;;7.50;96.30;;;;;;5011178;28;20447;-53
2022/04/15 01:52:54;;;;;;;6.57;5.97;;;7.40;99.90;;;;;;5011793;28;20838;-53
2022/04/15 01:55:21;;;;;;;7.23;5.63;;;7.40;99.90;;;;;;5011832;28;20490;-53
2022/04/15 01:57:49;;;;;;;6.63;5.63;;;7.40;99.90;;;;;;5011243;28;20515;-53
2022/04/15 02:00:16;;;;;;;8.83;5.70;;;7.30;99.90;;;;;;5011990;28;20475;-52
2022/04/15 02:02:42;;;;;;;10.40;6.90;;;7.20;99.90;;;;;;5011073;28;20487;-54
2022/04/15 02:05:09;;;;;;;6.03;5.43;;;7.30;99.90;;;;;;5011666;28;20486;-54
2022/04/15 02:07:36;;;;;;;6.23;5.63;;;7.20;99.90;;;;;;5011904;28;20498;-53
2022/04/15 02:10:06;;;;;;;6.57;5.63;;;7.20;99.90;;;;;;5014820;28;20502;-54
2022/04/15 02:12:33;;;;;;;18.07;6.57;;;7.20;99.90;;;;;;5015826;28;20521;-53
2022/04/15 02:15:00;;;;;;;10.83;6.07;;;7.20;99.90;;;;;;5016329;28;20447;-53
2022/04/15 02:17:27;;;;;;;10.90;6.20;;;7.10;99.90;;;;;;5029839;23;20553;-52
2022/04/15 02:19:54;;;;;;;8.63;6.60;;;7.20;99.90;;;;;;4995588;28;20523;-53
2022/04/15 02:22:20;;;;;;;10.63;6.57;;;7.20;99.90;;;;;;4997482;28;20491;-53
2022/04/15 02:24:47;;;;;;;7.00;5.70;;;7.20;99.90;;;;;;4996250;28;20875;-52
2022/04/15 02:27:13;;;;;;;8.13;5.97;;;7.30;99.90;;;;;;4995969;28;20923;-52
2022/04/15 02:29:40;;;;;;;8.17;5.97;;;7.30;99.90;;;;;;4995934;28;20902;-52
2022/04/15 02:32:09;;;;;;;7.50;6.53;;;7.30;99.90;;;;;;4993996;28;20958;-52
2022/04/15 02:34:35;;;;;;;11.03;5.97;;;7.30;99.90;;;;;;4996196;28;20476;-52
2022/04/15 02:37:02;;;;;;;13.20;6.13;;;7.30;99.90;;;;;;4996066;28;20476;-52
2022/04/15 02:39:29;;;;;;;7.97;5.93;;;7.30;99.90;;;;;;4995763;28;20515;-52
2022/04/15 02:41:56;;;;;;;9.77;6.10;;;7.30;99.90;;;;;;4995133;28;21021;-52
2022/04/15 02:44:23;;;;;;;7.77;5.50;;;7.40;99.90;;;;;;4995761;28;20460;-52
2022/04/15 02:46:50;;;;;;;6.70;6.10;;;7.40;99.90;;;;;;4995034;28;20491;-52
2022/04/15 02:49:17;;;;;;;9.90;5.73;;;7.40;99.90;;;;;;4978275;28;20446;-53
2022/04/15 02:51:44;;;;;;;8.20;5.80;;;7.40;99.90;;;;;;4976665;28;20529;-53
2022/04/15 02:54:11;;;;;;;11.87;6.43;;;7.40;99.90;;;;;;4979867;28;20500;-52
2022/04/15 02:56:37;;;;;;;7.33;5.70;;;7.40;99.90;;;;;;4976204;28;20477;-53
2022/04/15 02:59:04;;;;;;;8.07;6.03;;;7.40;99.90;;;;;;4976536;28;20513;-52
2022/04/15 03:01:30;;;;;;;7.40;6.47;;;7.50;99.90;;;;;;4976477;28;20953;-52
2022/04/15 03:03:57;;;;;;;11.20;5.90;;;7.50;99.90;;;;;;4976249;28;20481;-52
2022/04/15 03:06:25;;;;;;;12.60;6.53;;;7.50;99.90;;;;;;4976062;28;20488;-53
2022/04/15 03:08:51;;;;;;;9.80;7.50;;;7.50;99.90;;;;;;4975678;28;20982;-52
2022/04/15 03:11:18;;;;;;;6.90;6.17;;;7.60;99.90;;;;;;4975802;28;20536;-53
2022/04/15 03:13:44;;;;;;;7.50;6.33;;;7.60;99.90;;;;;;4976119;28;20481;-53
2022/04/15 03:16:11;;;;;;;6.23;5.60;;;7.60;99.90;;;;;;4980177;28;20513;-52
2022/04/15 03:18:38;;;;;;;10.00;6.10;;;7.60;99.90;;;;;;4975467;28;20493;-52
2022/04/15 03:21:04;;;;;;;7.23;6.17;;;7.60;99.90;;;;;;4974967;28;20489;-53
2022/04/15 03:23:32;;;;;;;9.67;6.83;;;7.70;99.90;;;;;;4975708;28;20489;-52
2022/04/15 03:25:59;;;;;;;11.83;7.00;;;7.70;99.90;;;;;;4978625;28;20481;-52
2022/04/15 03:28:25;;;;;;;15.70;6.03;;;7.70;99.90;;;;;;4994874;28;20822;-53
2022/04/15 03:30:52;;;;;;;7.37;6.47;;;7.70;99.90;;;;;;4995130;28;20456;-52
2022/04/15 03:33:18;;;;;;;6.97;6.30;;;7.70;99.90;;;;;;4995301;28;20492;-52
2022/04/15 03:35:45;;;;;;;9.07;6.30;;;7.70;99.90;;;;;;4994270;28;20488;-52
2022/04/15 03:38:12;;;;;;;12.33;6.73;;;7.70;99.90;;;;;;4955682;28;20996;-53
2022/04/15 03:40:40;;;;;;;9.53;6.40;;;7.70;99.90;;;;;;4956090;28;20450;-52
2022/04/15 03:43:06;;;;;;;8.10;5.90;;;7.70;99.90;;;;;;4973222;28;20979;-51
2022/04/15 03:45:33;;;;;;;10.10;6.33;;;7.70;99.90;;;;;;4994827;28;20487;-50
2022/04/15 03:47:59;;;;;;;7.57;6.43;;;7.70;99.90;;;;;;4993878;28;20527;-50
2022/04/15 03:50:26;;;;;;;12.33;6.80;;;7.70;99.90;;;;;;4994746;28;20536;-49
2022/04/15 03:52:54;;;;;;;10.80;6.83;;;7.70;99.90;;;;;;4983913;28;20967;-50
2022/04/15 03:55:24;;;;;;;8.30;5.80;;;7.80;99.90;;;;;;4975336;28;20457;-50
2022/04/15 03:57:52;;;;;;;9.13;6.17;;;7.80;99.90;;;;;;4975074;28;20620;-50
2022/04/15 04:00:21;;;;;;;10.60;6.67;;;7.80;99.90;;;;;;4974910;28;21034;-50
2022/04/15 04:02:49;;;;;;;7.33;6.07;;;7.80;99.90;;;;;;4983476;28;20456;-50
2022/04/15 04:05:16;;;;;;;11.47;6.80;;;7.80;99.90;;;;;;4994420;28;20484;-50
2022/04/15 04:07:42;;;;;;;8.50;6.67;;;7.80;99.90;;;;;;4983835;28;20501;-51
2022/04/15 04:10:10;;;;;;;7.50;6.63;;;7.80;99.90;;;;;;4975681;28;20474;-50
2022/04/15 04:12:37;;;;;;;11.70;7.03;;;7.80;99.90;;;;;;4994387;28;20481;-52
2022/04/15 04:15:07;;;;;;;8.63;6.80;;;7.80;99.90;;;;;;4984383;28;20540;-52
2022/04/15 04:17:34;;;;;;;8.23;7.13;;;7.80;99.90;;;;;;4974387;28;20558;-50
2022/04/15 04:20:01;;;;;;;7.73;7.00;;;7.80;99.90;;;;;;4974458;28;21024;-51
2022/04/15 04:22:29;;;;;;;8.27;7.23;;;7.80;99.90;;;;;;4993361;28;20457;-51
2022/04/15 04:24:55;;;;;;;7.60;6.80;;;7.80;99.90;;;;;;4994159;28;20452;-50
2022/04/15 04:27:22;;;;;;;10.07;8.03;;;7.80;99.90;;;;;;4992247;28;20508;-51
2022/04/15 04:29:49;;;;;;;10.93;8.80;;;7.80;99.90;;;;;;4992841;28;20445;-51
2022/04/15 04:32:17;;;;;;;10.17;7.93;;;7.80;99.90;;;;;;4981287;28;20485;-51
2022/04/15 04:34:44;;;;;;;8.70;7.53;;;7.80;99.90;;;;;;4974241;28;20481;-52
2022/04/15 04:37:11;;;;;;;8.00;7.30;;;7.80;99.90;;;;;;4974094;28;21011;-53
2022/04/15 04:39:38;;;;;;;10.40;7.80;;;7.80;99.90;;;;;;4973984;28;20525;-53
2022/04/15 04:42:07;;;;;;;10.13;7.57;;;7.80;99.90;;;;;;4974431;28;20485;-52
2022/04/15 04:44:34;;;;;;;8.63;7.67;;;7.80;99.90;;;;;;4974105;28;20968;-52
2022/04/15 04:47:01;;;;;;;7.90;7.10;;;7.80;99.90;;;;;;4974042;28;20493;-52
2022/04/15 04:49:29;;;;;;;10.93;7.60;;;7.80;99.90;;;;;;4974013;28;20477;-50
2022/04/15 04:51:56;;;;;;;7.22;6.53;;;7.80;99.90;;;;;;4987447;28;20483;-51
2022/04/15 04:54:23;;;;;;;9.70;7.10;;;7.90;99.90;;;;;;4993454;28;20679;-51
2022/04/15 04:56:49;;;;;;;10.33;7.90;;;7.90;99.90;;;;;;4992736;28;20535;-51
2022/04/15 04:59:16;;;;;;;8.20;6.70;;;7.90;99.90;;;;;;4993105;28;21040;-51
2022/04/15 05:01:43;;;;;;;7.07;6.40;;;7.90;99.90;;;;;;4992682;28;20537;-52
2022/04/15 05:04:10;;;;;;;9.13;6.73;;;7.90;99.90;;;;;;4993285;28;20540;-51
2022/04/15 05:06:38;;;;;;;9.73;7.63;;;7.90;99.90;;;;;;4993134;28;20483;-51
2022/04/15 05:09:04;;;;;;;7.00;6.40;;;8.00;99.90;;;;;;4992866;28;20488;-52
2022/04/15 05:11:31;;;;;;;8.33;6.70;;;8.00;99.90;;;;;;4991910;28;20484;-51
2022/04/15 05:13:57;;;;;;;8.70;6.27;;;8.00;99.90;;;;;;4992819;28;20488;-51
2022/04/15 05:16:24;;;;;;;7.93;7.00;;;8.00;99.90;;;;;;4992922;28;20488;-50
2022/04/15 05:18:50;;;;;;;11.20;7.03;;;8.00;99.90;;;;;;4992553;28;20515;-51
2022/04/15 05:21:17;;;;;;;6.43;5.93;;;8.00;99.90;;;;;;4991392;28;20480;-51
2022/04/15 05:23:46;;;;;;;6.47;5.67;;;8.10;99.90;;;;;;4992913;28;20524;-51
2022/04/15 05:26:13;;;;;;;13.70;6.70;;;8.10;99.90;;;;;;4992304;28;20452;-51
2022/04/15 05:28:41;;;;;;;9.37;5.50;;;8.00;24.30;;;;;;4992579;28;20499;-52
2022/04/15 05:31:08;;;;;;;12.57;6.00;;;8.10;85.40;;;;;;4986125;28;20936;-51
2022/04/15 05:33:35;;;;;;;7.20;5.90;;;8.20;99.90;;;;;;4973487;28;20579;-51
2022/04/15 05:36:02;;;;;;;8.37;5.93;;;8.20;99.90;;;;;;4973436;28;20460;-51
2022/04/15 05:38:29;;;;;;;6.77;6.03;;;8.20;86.70;;;;;;4973177;28;20843;-50
2022/04/15 05:40:57;;;;;;;6.90;6.30;;;8.30;21.80;;;;;;4978339;28;21061;-51
2022/04/15 05:43:23;;;;;;;7.07;6.23;;;8.30;27.30;;;;;;4992074;28;20488;-51
2022/04/15 05:45:50;;;;;;;6.43;5.83;;;8.30;27.50;;;;;;4992780;28;20459;-51
2022/04/15 05:48:17;;;;;;;5.93;5.33;;;8.30;32.60;;;;;;4992352;28;20476;-50
2022/04/15 05:50:43;;;;;;;5.97;5.37;;;8.30;43.30;;;;;;4989006;28;20481;-51
2022/04/15 05:53:12;;;;;;;12.00;7.90;;;8.30;43.60;;;;;;4973302;28;20484;-51
2022/04/15 05:55:38;;;;;;;8.27;5.40;;;8.30;49.80;;;;;;4973130;28;20824;-51
2022/04/15 05:58:07;;;;;;;9.40;6.70;;;8.30;58.20;;;;;;4972597;28;20501;-51
2022/04/15 06:00:34;;;;;;;12.77;6.13;;;8.30;81.00;;;;;;4975024;28;20492;-51
2022/04/15 06:03:00;;;;;;;6.00;5.50;;;8.30;73.70;;;;;;4992508;28;20488;-51
2022/04/15 06:05:27;;;;;;;6.13;5.50;;;8.30;66.50;;;;;;4992586;28;20479;-51
2022/04/15 06:07:53;;;;;;;5.80;5.30;;;8.30;82.00;;;;;;4991684;28;20507;-51
2022/04/15 06:10:21;;;;;;;7.83;5.67;;;8.40;74.40;;;;;;4992021;28;20996;-51
2022/04/15 06:13:00;;;;;;;5.90;5.33;;;8.40;74.10;;;;;;4953787;28;20545;-51
2022/04/15 06:15:31;;;;;;;8.87;5.93;;;8.40;79.40;;;;;;4954338;28;20451;-51
2022/04/15 06:17:58;;;;;;;6.03;5.53;;;8.40;72.30;;;;;;4958453;28;20565;-52
2022/04/15 06:20:24;;;;;;;9.70;6.63;;;8.40;89.90;;;;;;4956834;28;20528;-52
2022/04/15 06:22:51;;;;;;;6.80;5.70;;;8.40;95.30;;;;;;4992544;28;20954;-52
2022/04/15 06:25:18;;;;;;;6.67;6.03;;;8.40;98.90;;;;;;4992038;28;20989;-52
2022/04/15 06:27:44;;;;;;;5.93;5.30;;;8.40;92.60;;;;;;4992117;28;20507;-52
2022/04/15 06:30:11;;;;;;;6.97;6.10;;;8.50;85.80;;;;;;4992597;28;20480;-51
2022/04/15 06:32:39;;;;;;;9.37;5.60;;;8.50;81.20;;;;;;4990930;28;20531;-51
2022/04/15 06:35:07;;;;;;;8.87;5.77;;;8.40;99.90;;;;;;4991912;28;20532;-50
2022/04/15 06:37:34;;;;;;;7.90;5.97;;;8.40;99.90;;;;;;4991810;28;20632;-51
2022/04/15 06:40:00;;;;;;;6.20;5.23;;;8.40;99.90;;;;;;4992086;28;21065;-51
2022/04/15 06:42:30;;;;;;;6.77;6.10;;;8.50;99.90;;;;;;4991737;28;20527;-51
2022/04/15 06:44:57;;;;;;;11.00;5.60;;;8.50;99.90;;;;;;4992215;28;20832;-51
2022/04/15 06:47:24;;;;;;;8.67;5.97;;;8.50;99.90;;;;;;4992253;28;20507;-53
2022/04/15 06:49:52;;;;;;;7.20;6.00;;;8.50;99.90;;;;;;4992142;28;20536;-52
2022/04/15 06:52:19;;;;;;;6.57;6.00;;;8.50;99.90;;;;;;4991364;28;20487;-51
2022/04/15 06:54:45;;;;;;;7.13;6.43;;;8.60;99.90;;;;;;4992394;28;20511;-52
2022/04/15 06:57:12;;;;;;;7.73;5.83;;;8.60;99.90;;;;;;4994829;28;20474;-51
2022/04/15 06:59:39;;;;;;;11.77;6.60;;;8.60;99.90;;;;;;4995266;28;21074;-51
2022/04/15 07:02:06;;;;;;;8.40;6.37;;;8.60;99.90;;;;;;4982068;28;20492;-50
2022/04/15 07:04:34;;;;;;;8.10;5.60;;;8.60;99.90;;;;;;4976326;28;20993;-52
2022/04/15 07:07:02;;;;;;;8.77;5.80;;;8.70;96.50;;;;;;4968906;28;20461;-52
2022/04/15 07:09:29;;;;;;;6.07;5.57;;;8.60;99.90;;;;;;4975706;28;20441;-51
2022/04/15 07:11:56;;;;;;;6.47;5.87;;;8.60;99.90;;;;;;4987247;28;20897;-50
2022/04/15 07:14:23;;;;;;;8.57;5.87;;;8.60;99.90;;;;;;4995376;28;20950;-51
2022/04/15 07:16:49;;;;;;;6.67;5.70;;;8.60;99.90;;;;;;4991762;28;20544;-51
2022/04/15 07:19:16;;;;;;;8.33;7.07;;;8.60;99.90;;;;;;4975235;28;20992;-51
2022/04/15 07:21:43;;;;;;;9.90;6.90;;;8.60;99.90;;;;;;4985132;28;20480;-51
2022/04/15 07:24:11;;;;;;;10.37;7.10;;;8.60;99.90;;;;;;4995318;28;20456;-51
2022/04/15 07:26:38;;;;;;;10.43;6.70;;;8.60;99.90;;;;;;4995064;28;20532;-51
2022/04/15 07:29:05;;;;;;;9.13;7.30;;;8.60;99.90;;;;;;4994793;28;20507;-51
2022/04/15 07:31:32;;;;;;;9.67;6.73;;;8.60;99.90;;;;;;4987383;28;20445;-51
2022/04/15 07:33:59;;;;;;;9.17;7.10;;;8.60;99.90;;;;;;4975300;28;20544;-51
2022/04/15 07:36:48;;;;;;;7.97;7.03;;;8.60;99.90;;;;;;4975622;28;20500;-51
2022/04/15 07:39:16;;;;;;;11.20;7.53;;;8.60;99.90;;;;;;4975139;28;20847;-51
2022/04/15 07:41:45;;;;;;;11.17;7.63;;;8.60;99.90;;;;;;4984281;28;20449;-51
2022/04/15 07:44:13;;;;;;;9.27;7.43;;;8.70;99.90;;;;;;4994700;28;20453;-50
2022/04/15 07:46:41;;;;;;;13.83;7.23;;;8.70;99.90;;;;;;4988482;28;20457;-51
2022/04/15 07:49:08;;;;;;;10.47;7.20;;;8.80;99.90;;;;;;4994281;28;20515;-51
2022/04/15 07:51:35;;;;;;;9.53;7.40;;;8.80;99.90;;;;;;4984507;28;20473;-51
2022/04/15 07:54:02;;;;;;;7.57;6.77;;;8.90;99.90;;;;;;4975221;28;20487;-51
2022/04/15 07:56:30;;;;;;;13.60;8.47;;;8.90;99.90;;;;;;4977322;28;20875;-51
2022/04/15 07:58:57;;;;;;;10.30;7.20;;;8.80;99.90;;;;;;4974441;28;20898;-52
2022/04/15 08:01:27;;;;;;;7.80;7.00;;;8.80;99.90;;;;;;4974982;28;20577;-51
2022/04/15 08:03:54;;;;;;;7.80;6.60;;;8.70;99.90;;;;;;4980728;28;20464;-50
2022/04/15 08:06:21;;;;;;;14.50;8.50;;;8.70;99.90;;;;;;4993769;28;20926;-51
2022/04/15 08:08:47;;;;;;;11.10;7.17;;;8.70;99.90;;;;;;4993903;28;20473;-51
2022/04/15 08:11:14;;;;;;;10.57;8.13;;;8.70;99.90;;;;;;4994171;28;20483;-50
2022/04/15 08:13:42;;;;;;;13.27;8.20;;;8.80;99.90;;;;;;4976363;28;20457;-51
2022/04/15 08:16:09;;;;;;;11.97;7.93;;;8.80;99.90;;;;;;4975366;28;20500;-51
2022/04/15 08:18:35;;;;;;;15.80;8.27;;;8.80;99.90;;;;;;4994202;28;20484;-51
2022/04/15 08:21:02;;;;;;;11.83;8.27;;;8.80;99.90;;;;;;4986063;28;20627;-50
2022/04/15 08:23:28;;;;;;;13.27;7.40;;;8.70;99.90;;;;;;4981827;28;20566;-51
2022/04/15 08:25:55;;;;;;;8.77;7.67;;;8.80;99.90;;;;;;4974472;28;20481;-51
2022/04/15 08:28:22;;;;;;;12.10;8.27;;;8.80;99.90;;;;;;4975461;28;20473;-51
2022/04/15 08:30:50;;;;;;;12.90;7.80;;;8.70;99.90;;;;;;4974401;28;20847;-51
2022/04/15 08:33:17;;;;;;;14.40;7.93;;;8.70;99.90;;;;;;4974473;28;20481;-51
2022/04/15 08:35:43;;;;;;;7.77;6.50;;;8.70;99.90;;;;;;4974224;28;20910;-50
2022/04/15 08:38:11;;;;;;;11.30;7.90;;;8.70;99.90;;;;;;4989893;28;20504;-52
2022/04/15 08:40:43;;;;;;;10.23;7.70;;;8.60;99.90;;;;;;4987829;28;20483;-51
2022/04/15 08:43:11;;;;;;;9.60;7.40;;;8.60;99.90;;;;;;4974155;28;20497;-50
2022/04/15 08:45:40;;;;;;;10.00;7.73;;;8.60;99.90;;;;;;4974141;28;20508;-51
2022/04/15 08:48:10;;;;;;;10.53;8.07;;;8.70;99.90;;;;;;4973578;28;21009;-51
2022/04/15 08:50:37;;;;;;;8.90;6.40;;;8.80;99.90;;;;;;4977961;28;20452;-52
2022/04/15 08:53:04;;;;;;;10.73;7.60;;;8.80;99.90;;;;;;4990835;28;20472;-51
2022/04/15 08:55:31;;;;;;;11.60;7.73;;;8.80;99.90;;;;;;4974875;28;20449;-51
2022/04/15 08:57:59;;;;;;;8.23;6.60;;;8.80;99.90;;;;;;4974108;28;20554;-51
2022/04/15 09:00:27;;;;;;;13.80;7.90;;;8.80;99.90;;;;;;4975214;28;20477;-51
2022/04/15 09:02:55;;;;;;;13.83;8.23;;;8.80;99.90;;;;;;4974003;28;20457;-51
2022/04/15 09:05:24;;;;;;;12.10;6.70;;;8.80;99.90;;;;;;4973740;28;20965;-51
2022/04/15 09:08:02;;;;;;;10.57;6.83;;;8.70;99.90;;;;;;4973637;28;20480;-51
2022/04/15 09:10:29;;;;;;;7.27;6.50;;;8.60;93.60;;;;;;4979768;28;20446;-51
2022/04/15 09:12:55;;;;;;;9.17;7.07;;;8.60;85.00;;;;;;4974301;28;21023;-51
2022/04/15 09:15:22;;;;;;;7.23;6.47;;;8.70;78.40;;;;;;4974504;28;20549;-50
2022/04/15 09:17:50;;;;;;;7.40;6.63;;;8.70;78.20;;;;;;4973177;28;20482;-51
2022/04/15 09:20:17;;;;;;;9.63;6.90;;;8.70;77.20;;;;;;4985920;28;20491;-51
2022/04/15 09:22:46;;;;;;;7.20;6.50;;;8.60;73.10;;;;;;4993189;28;20486;-51
2022/04/15 09:25:13;;;;;;;13.80;7.97;;;8.50;57.70;;;;;;4993171;28;20483;-51
2022/04/15 09:27:40;;;;;;;11.97;7.20;;;8.50;29.80;;;;;;4991946;28;20930;-50
2022/04/15 09:30:08;;;;;;;10.30;7.20;;;8.60;99.90;;;;;;4981888;28;20492;-51
2022/04/15 09:32:35;;;;;;;6.87;6.27;;;8.70;99.90;;;;;;4973219;28;20536;-51
2022/04/15 09:35:04;;;;;;;10.10;6.57;;;8.60;99.90;;;;;;4973481;28;20473;-51
2022/04/15 09:37:37;;;;;;;6.57;5.27;;;8.70;99.90;;;;;;4973341;28;20485;-51
2022/04/15 09:40:07;;;;;;;6.27;5.77;;;8.70;99.90;;;;;;4984044;28;20951;-52
2022/04/15 09:42:35;;;;;;;6.53;5.90;;;8.70;99.90;;;;;;4990947;28;20488;-51
2022/04/15 09:45:16;;;;;;;7.57;6.10;;;8.80;99.90;;;;;;4973102;28;20460;-51
2022/04/15 09:47:43;;;;;;;5.83;5.33;;;8.70;99.90;;;;;;4973153;28;20508;-52
2022/04/15 09:50:26;;;;;;;5.90;5.33;;;8.70;99.90;;;;;;4984836;28;20535;-50
2022/04/15 09:52:54;;;;;;;5.60;5.10;;;8.70;99.90;;;;;;4992608;28;20452;-51
2022/04/15 09:55:24;;;;;;;5.53;5.13;;;8.60;99.90;;;;;;4992763;28;20934;-50
2022/04/15 09:57:51;;;;;;;5.50;5.00;;;8.60;99.90;;;;;;4992412;28;20773;-51
2022/04/15 10:00:19;;;;;;;6.83;6.23;;;8.70;99.90;;;;;;4988680;28;20522;-50
2022/04/15 10:02:47;;;;;;;6.67;5.90;;;8.70;99.90;;;;;;4992412;28;20961;-51
2022/04/15 10:05:15;;;;;;;6.30;5.67;;;8.70;99.90;;;;;;4992490;28;20571;-51
2022/04/15 10:07:42;;;;;;;5.57;5.07;;;8.80;99.90;;;;;;4991491;28;20480;-51
2022/04/15 10:10:10;;;;;;;5.10;4.67;;;8.70;99.90;;;;;;4992205;28;20989;-50
2022/04/15 10:12:40;;;;;;;5.90;5.40;;;8.70;99.90;;;;;;4992172;28;20951;-51
2022/04/15 10:15:09;;;;;;;4.57;4.27;;;8.70;99.90;;;;;;4992560;28;20448;-51
2022/04/15 10:17:37;;;;;;;6.00;4.23;;;8.70;99.90;;;;;;4987167;28;20516;-51
2022/04/15 10:20:04;;;;;;;4.30;4.00;;;8.80;99.90;;;;;;4972959;28;20976;-51
2022/04/15 10:22:31;;;;;;;4.37;4.07;;;8.80;99.90;;;;;;4972815;28;20460;-51
2022/04/15 10:24:58;;;;;;;8.30;3.93;;;8.80;99.90;;;;;;4972905;28;20485;-51
2022/04/15 10:27:26;;;;;;;3.93;3.73;;;8.80;99.90;;;;;;4974086;28;20476;-52
2022/04/15 10:30:02;;;;;;;4.80;4.30;;;8.90;99.90;;;;;;4973733;28;20464;-51
2022/04/15 10:32:29;;;;;;;5.00;3.60;;;9.00;99.90;;;;;;4982147;28;20871;-51
2022/04/15 10:34:55;;;;;;;3.80;3.47;;;9.00;99.90;;;;;;4995859;28;20515;-51
2022/04/15 10:37:46;;;;;;;4.03;3.83;;;9.00;99.90;;;;;;4995321;28;20511;-51
2022/04/15 10:40:23;;;;;;;3.53;3.33;;;9.10;99.90;;;;;;4995319;28;20484;-51
2022/04/15 10:42:50;;;;;;;4.20;3.87;;;9.20;99.90;;;;;;4976578;28;20453;-52
2022/04/15 10:45:28;;;;;;;4.33;3.73;;;9.20;99.90;;;;;;4976409;28;20469;-51
2022/04/15 10:47:58;;;;;;;3.50;3.30;;;9.20;99.90;;;;;;4982013;28;20567;-51
2022/04/15 10:50:27;;;;;;;2.70;2.60;;;9.30;99.90;;;;;;4978359;28;20461;-53
2022/04/15 10:53:05;;;;;;;3.00;2.80;;;9.20;99.90;;;;;;4976453;28;20488;-53
2022/04/15 10:55:43;;;;;;;3.27;3.07;;;9.10;99.90;;;;;;4976247;28;20481;-53
2022/04/15 10:58:13;;;;;;;3.00;2.80;;;9.20;99.90;;;;;;4983258;28;20487;-54
2022/04/15 11:03:27;;;;;;;2.60;2.50;;;9.10;99.90;;;;;;4995526;28;20431;-55
2022/04/15 11:05:55;;;;;;;3.67;3.30;;;9.20;99.90;;;;;;4987920;28;20468;-53
2022/04/15 11:08:24;;;;;;;2.60;2.50;;;9.20;99.90;;;;;;4984586;28;20543;-53
2022/04/15 11:11:04;;;;;;;2.30;2.20;;;9.20;99.90;;;;;;4995002;28;21001;-55
2022/04/15 11:13:47;;;;;;;3.07;2.87;;;9.20;99.90;;;;;;4995421;28;20476;-53
2022/04/15 11:16:16;;;;;;;2.50;2.40;;;9.20;99.90;;;;;;4987481;28;20460;-55
2022/04/15 11:18:47;;;;;;;2.70;2.50;;;9.20;99.90;;;;;;4982614;28;21003;-53
2022/04/15 11:21:16;;;;;;;2.93;2.63;;;9.20;99.90;;;;;;4976003;28;20584;-55
2022/04/15 11:23:46;;;;;;;3.17;2.87;;;9.20;22.10;;;;;;4992460;28;20453;-54
2022/04/15 11:26:13;;;;;;;2.70;2.60;;;9.30;99.90;;;;;;4995185;28;20549;-53
2022/04/15 11:28:40;;;;;;;2.07;1.97;;;9.30;85.00;;;;;;4984145;28;21006;-53
2022/04/15 11:31:23;;;;;;;2.30;2.20;;;9.30;99.90;;;;;;4975628;28;20481;-52
2022/04/15 11:33:50;;;;;;;2.40;2.20;;;9.30;86.90;;;;;;4975603;28;20446;-53
2022/04/15 11:36:18;;;;;;;2.43;2.33;;;9.30;27.10;;;;;;4975688;28;20543;-53
2022/04/15 11:38:45;;;;;;;2.63;2.53;;;9.20;55.60;;;;;;4983198;28;21698;-54
2022/04/15 11:41:16;;;;;;;2.43;2.33;;;9.20;52.60;;;;;;4974441;28;20517;-54
2022/04/15 11:43:47;;;;;;;2.90;2.70;;;9.20;45.80;;;;;;4975878;28;20485;-53
2022/04/15 11:46:14;;;;;;;1.77;1.67;;;9.20;51.10;;;;;;4975325;28;20560;-53
2022/04/15 11:48:42;;;;;;;2.50;2.40;;;9.30;56.10;;;;;;4985896;28;20571;-54
2022/04/15 11:51:09;;;;;;;2.53;2.33;;;9.30;63.30;;;;;;4994891;28;20452;-53
2022/04/15 11:53:35;;;;;;;2.57;2.47;;;9.30;63.30;;;;;;4994758;28;20523;-53
2022/04/15 11:56:02;;;;;;;2.80;2.70;;;9.40;60.60;;;;;;4984339;28;20464;-54
2022/04/15 11:58:33;;;;;;;2.20;2.10;;;9.40;55.60;;;;;;4983761;28;20930;-54
2022/04/15 12:01:01;;;;;;;2.10;2.00;;;9.40;78.90;;;;;;4994640;28;21005;-55
2022/04/15 12:03:29;;;;;;;2.23;2.13;;;9.40;93.60;;;;;;4994472;28;20868;-52
2022/04/15 12:05:58;;;;;;;2.00;1.90;;;9.40;96.60;;;;;;4994854;28;20477;-53
2022/04/15 12:08:26;;;;;;;2.10;1.90;;;9.50;99.90;;;;;;4985422;28;20470;-53
2022/04/15 12:10:53;;;;;;;1.57;1.57;;;9.60;99.90;;;;;;4974754;28;20454;-53
2022/04/15 12:13:20;;;;;;;1.80;1.70;;;9.60;99.90;;;;;;4975994;28;20454;-53
2022/04/15 12:15:47;;;;;;;2.40;2.30;;;9.60;99.90;;;;;;4974967;28;20528;-54
2022/04/15 12:18:13;;;;;;;2.20;2.10;;;9.60;99.90;;;;;;4981138;28;20476;-53
2022/04/15 12:20:42;;;;;;;2.20;2.10;;;9.70;99.90;;;;;;4994191;28;20484;-52
2022/04/15 12:23:13;;;;;;;2.30;2.13;;;9.60;99.90;;;;;;4993910;28;20962;-53
2022/04/15 12:26:06;;;;;;;1.73;1.63;;;9.60;99.90;;;;;;4994039;28;20449;-54
2022/04/15 12:31:30;;;;;;;1.47;1.37;;;9.70;99.90;;;;;;4974698;28;20421;-53
2022/04/15 12:33:56;;;;;;;1.57;1.47;;;9.60;99.90;;;;;;4974346;28;20544;-54
2022/04/15 12:36:23;;;;;;;1.50;1.47;;;9.60;99.90;;;;;;4974701;28;20493;-53
2022/04/15 12:39:02;;;;;;;1.47;1.37;;;9.60;99.90;;;;;;4985376;28;20555;-52
2022/04/15 12:41:43;;;;;;;1.60;1.60;;;9.70;99.90;;;;;;4993557;28;20998;-54
2022/04/15 12:44:14;;;;;;;1.00;1.00;;;9.60;99.90;;;;;;4993685;28;20449;-52
2022/04/15 12:46:43;;;;;;;1.60;1.50;;;9.70;99.90;;;;;;4976045;28;20453;-53
2022/04/15 12:49:25;;;;;;;1.50;1.40;;;9.60;99.90;;;;;;4987287;28;20990;-54
2022/04/15 12:51:52;;;;;;;1.43;1.33;;;9.50;99.90;;;;;;4993754;28;20603;-54
2022/04/15 12:54:20;;;;;;;1.23;1.23;;;9.40;99.90;;;;;;4992991;28;20536;-55
2022/04/15 12:56:54;;;;;;;1.43;1.33;;;9.50;99.90;;;;;;4993515;28;20499;-53
2022/04/15 12:59:21;;;;;;;1.20;1.20;;;9.30;91.10;;;;;;4978191;28;20449;-53
2022/04/15 13:01:48;;;;;;;1.10;1.10;;;9.40;75.30;;;;;;4980711;28;20508;-55
2022/04/15 13:04:15;;;;;;;1.20;1.20;;;9.30;57.80;;;;;;4993490;28;20472;-53